Time,TemperatureF,DewpointF,PressureIn,WindDirection,WindDirectionDegrees,WindSpeedMPH,WindSpeedGustMPH,Humidity,HourlyPrecipIn,Conditions,Clouds,dailyrainin,SoftwareType,DateUTC
2013-07-26 00:05:00,60.0,56.1,30.07,West,277,0.0,0.0,87,0.00,,,0.00,Wunderground v.1.13,2013-07-26 04:05:00,
2013-07-26 00:10:00,59.9,56.3,30.07,West,278,0.0,0.0,88,0.00,,,0.00,Wunderground v.1.13,2013-07-26 04:10:00,
2013-07-26 00:15:00,59.7,55.8,30.07,West,277,0.0,0.0,87,0.00,,,0.00,Wunderground v.1.13,2013-07-26 04:15:00,
2013-07-26 00:20:00,59.6,56.0,30.07,West,278,0.0,0.0,88,0.00,,,0.00,Wunderground v.1.13,2013-07-26 04:20:00,
2013-07-26 00:25:00,59.5,55.9,30.06,West,277,0.0,0.0,88,0.00,,,0.00,Wunderground v.1.13,2013-07-26 04:25:00,
2013-07-26 00:30:00,59.5,55.9,30.06,West,277,0.0,0.0,88,0.00,,,0.00,Wunderground v.1.13,2013-07-26 04:30:00,
2013-07-26 00:40:00,59.3,55.7,30.05,West,278,0.0,0.0,88,0.00,,,0.00,Wunderground v.1.13,2013-07-26 04:40:00,
2013-07-26 00:50:00,59.0,55.4,30.05,West,278,0.0,0.0,88,0.00,,,0.00,Wunderground v.1.13,2013-07-26 04:50:00,
2013-07-26 01:00:00,59.0,55.4,30.05,West,277,0.0,0.0,88,0.00,,,0.00,Wunderground v.1.13,2013-07-26 05:00:00,
2013-07-26 01:05:00,59.0,55.8,30.05,West,277,0.0,0.0,89,0.00,,,0.00,Wunderground v.1.13,2013-07-26 05:05:00,
2013-07-26 01:15:00,58.7,55.5,30.05,West,278,0.0,0.0,89,0.00,,,0.00,Wunderground v.1.13,2013-07-26 05:15:00,
2013-07-26 01:20:00,58.6,55.4,30.05,West,278,0.0,0.0,89,0.00,,,0.00,Wunderground v.1.13,2013-07-26 05:20:00,
2013-07-26 01:25:00,58.5,55.3,30.04,West,278,0.0,0.0,89,0.00,,,0.00,Wunderground v.1.13,2013-07-26 05:25:00,
2013-07-26 01:35:00,58.3,55.1,30.05,West,278,0.0,0.0,89,0.00,,,0.00,Wunderground v.1.13,2013-07-26 05:35:00,
2013-07-26 01:45:00,58.2,55.3,30.05,West,277,0.0,0.0,90,0.00,,,0.00,Wunderground v.1.13,2013-07-26 05:45:00,
2013-07-26 01:55:00,58.0,55.1,30.05,West,278,0.0,0.0,90,0.00,,,0.00,Wunderground v.1.13,2013-07-26 05:55:00,
2013-07-26 02:00:00,57.9,55.0,30.06,West,278,0.0,0.0,90,0.00,,,0.00,Wunderground v.1.13,2013-07-26 06:00:00,
2013-07-26 02:05:00,57.8,54.9,30.05,West,277,0.0,0.0,90,0.00,,,0.00,Wunderground v.1.13,2013-07-26 06:05:00,
2013-07-26 02:15:00,57.8,54.9,30.06,West,278,0.0,0.0,90,0.00,,,0.00,Wunderground v.1.13,2013-07-26 06:15:00,
2013-07-26 02:20:00,57.8,54.9,30.06,West,277,0.0,0.0,90,0.00,,,0.00,Wunderground v.1.13,2013-07-26 06:20:00,
2013-07-26 02:30:00,57.7,54.8,30.06,West,277,0.0,0.0,90,0.00,,,0.00,Wunderground v.1.13,2013-07-26 06:30:00,
2013-07-26 02:35:00,57.6,54.7,30.07,West,278,0.0,0.0,90,0.00,,,0.00,Wunderground v.1.13,2013-07-26 06:35:00,
2013-07-26 02:40:00,57.5,54.6,30.06,West,278,0.0,0.0,90,0.00,,,0.00,Wunderground v.1.13,2013-07-26 06:40:00,
2013-07-26 02:45:00,57.4,54.5,30.06,West,277,0.0,0.0,90,0.00,,,0.00,Wunderground v.1.13,2013-07-26 06:45:00,
2013-07-26 02:55:00,57.3,54.7,30.06,West,278,0.0,0.0,91,0.00,,,0.00,Wunderground v.1.13,2013-07-26 06:55:00,
2013-07-26 03:00:00,57.3,54.7,30.06,West,278,0.0,0.0,91,0.00,,,0.00,Wunderground v.1.13,2013-07-26 07:00:00,
2013-07-26 03:05:00,57.3,54.7,30.07,West,278,0.0,0.0,91,0.00,,,0.00,Wunderground v.1.13,2013-07-26 07:05:00,
2013-07-26 03:15:00,57.0,54.4,30.07,West,278,0.0,0.0,91,0.00,,,0.00,Wunderground v.1.13,2013-07-26 07:15:00,
2013-07-26 03:20:00,56.9,54.3,30.07,West,278,0.0,0.0,91,0.00,,,0.00,Wunderground v.1.13,2013-07-26 07:20:00,
2013-07-26 03:30:00,56.8,54.2,30.06,West,278,0.0,0.0,91,0.00,,,0.00,Wunderground v.1.13,2013-07-26 07:30:00,
2013-07-26 03:40:00,56.7,54.1,30.06,West,277,0.0,0.0,91,0.00,,,0.00,Wunderground v.1.13,2013-07-26 07:40:00,
2013-07-26 03:50:00,56.4,53.8,30.06,West,278,0.0,0.0,91,0.00,,,0.00,Wunderground v.1.13,2013-07-26 07:50:00,
2013-07-26 04:00:00,56.2,53.9,30.06,West,277,0.0,0.0,92,0.00,,,0.00,Wunderground v.1.13,2013-07-26 08:00:00,
2013-07-26 04:05:00,56.2,53.9,30.06,West,277,0.0,0.0,92,0.00,,,0.00,Wunderground v.1.13,2013-07-26 08:05:00,
2013-07-26 04:15:00,56.1,53.8,30.06,West,278,0.0,0.0,92,0.00,,,0.00,Wunderground v.1.13,2013-07-26 08:15:00,
2013-07-26 04:25:00,56.1,53.8,30.06,West,278,0.0,0.0,92,0.00,,,0.00,Wunderground v.1.13,2013-07-26 08:25:00,
2013-07-26 04:30:00,56.1,53.8,30.06,West,277,0.0,0.0,92,0.00,,,0.00,Wunderground v.1.13,2013-07-26 08:30:00,
2013-07-26 04:35:00,56.0,53.7,30.06,West,277,0.0,0.0,92,0.00,,,0.00,Wunderground v.1.13,2013-07-26 08:35:00,
2013-07-26 04:45:00,55.9,53.6,30.06,West,277,0.0,0.0,92,0.00,,,0.00,Wunderground v.1.13,2013-07-26 08:45:00,
2013-07-26 04:55:00,55.8,53.5,30.06,West,277,0.0,0.0,92,0.00,,,0.00,Wunderground v.1.13,2013-07-26 08:55:00,
2013-07-26 05:00:00,55.8,53.5,30.06,West,278,0.0,0.0,92,0.00,,,0.00,Wunderground v.1.13,2013-07-26 09:00:00,
2013-07-26 05:05:00,55.7,53.4,30.06,West,277,0.0,0.0,92,0.00,,,0.00,Wunderground v.1.13,2013-07-26 09:05:00,
2013-07-26 05:15:00,55.6,53.3,30.06,West,277,0.0,0.0,92,0.00,,,0.00,Wunderground v.1.13,2013-07-26 09:15:00,
2013-07-26 05:20:00,55.6,53.3,30.06,West,278,0.0,0.0,92,0.00,,,0.00,Wunderground v.1.13,2013-07-26 09:20:00,
2013-07-26 05:30:00,55.5,53.2,30.06,West,278,0.0,0.0,92,0.00,,,0.00,Wunderground v.1.13,2013-07-26 09:30:00,
2013-07-26 05:40:00,55.4,53.1,30.06,West,278,0.0,0.0,92,0.00,,,0.00,Wunderground v.1.13,2013-07-26 09:40:00,
2013-07-26 05:50:00,55.2,53.2,30.06,West,277,0.0,0.0,93,0.00,,,0.00,Wunderground v.1.13,2013-07-26 09:50:00,
2013-07-26 05:55:00,55.1,53.1,30.06,West,278,0.0,0.0,93,0.00,,,0.00,Wunderground v.1.13,2013-07-26 09:55:00,
2013-07-26 06:05:00,55.0,53.0,30.07,West,278,0.0,0.0,93,0.00,,,0.00,Wunderground v.1.13,2013-07-26 10:05:00,
2013-07-26 06:15:00,54.8,52.8,30.07,West,278,0.0,0.0,93,0.00,,,0.00,Wunderground v.1.13,2013-07-26 10:15:00,
2013-07-26 06:25:00,54.8,52.8,30.07,West,278,0.0,0.0,93,0.00,,,0.00,Wunderground v.1.13,2013-07-26 10:25:00,
2013-07-26 06:35:00,54.8,52.8,30.07,West,278,0.0,0.0,93,0.00,,,0.00,Wunderground v.1.13,2013-07-26 10:35:00,
2013-07-26 06:40:00,54.8,52.8,30.08,West,278,0.0,0.0,93,0.00,,,0.00,Wunderground v.1.13,2013-07-26 10:40:00,
2013-07-26 06:45:00,54.7,52.7,30.08,West,277,0.0,0.0,93,0.00,,,0.00,Wunderground v.1.13,2013-07-26 10:45:00,
2013-07-26 06:50:00,54.7,52.7,30.08,West,278,0.0,0.0,93,0.00,,,0.00,Wunderground v.1.13,2013-07-26 10:50:00,
2013-07-26 07:00:00,54.8,52.8,30.08,West,278,0.0,0.0,93,0.00,,,0.00,Wunderground v.1.13,2013-07-26 11:00:00,
2013-07-26 07:05:00,54.8,52.8,30.08,West,278,0.0,0.0,93,0.00,,,0.00,Wunderground v.1.13,2013-07-26 11:05:00,
2013-07-26 07:15:00,54.8,52.8,30.08,West,277,0.0,0.0,93,0.00,,,0.00,Wunderground v.1.13,2013-07-26 11:15:00,
2013-07-26 07:25:00,54.7,53.0,30.08,West,278,0.0,0.0,94,0.00,,,0.00,Wunderground v.1.13,2013-07-26 11:25:00,
2013-07-26 07:30:00,54.6,52.9,30.08,West,268,0.0,0.0,94,0.00,,,0.00,Wunderground v.1.13,2013-07-26 11:30:00,
2013-07-26 07:40:00,54.8,53.1,30.08,West,268,0.0,0.0,94,0.00,,,0.00,Wunderground v.1.13,2013-07-26 11:40:00,
2013-07-26 07:50:00,54.7,53.0,30.08,West,268,0.0,0.0,94,0.00,,,0.00,Wunderground v.1.13,2013-07-26 11:50:00,
2013-07-26 08:00:00,55.0,53.6,30.08,SSW,203,0.0,0.0,95,0.00,,,0.00,Wunderground v.1.13,2013-07-26 12:00:00,
2013-07-26 08:06:00,55.0,53.6,30.08,SSW,203,0.0,1.0,95,0.00,,,0.00,Wunderground v.1.13,2013-07-26 12:06:00,
2013-07-26 08:15:00,55.6,54.2,30.08,SSW,203,0.0,1.0,95,0.00,,,0.00,Wunderground v.1.13,2013-07-26 12:15:00,
2013-07-26 08:20:00,55.9,54.5,30.08,SSW,203,0.0,1.0,95,0.00,,,0.00,Wunderground v.1.13,2013-07-26 12:20:00,
2013-07-26 08:25:00,56.4,55.0,30.08,SSW,203,0.0,1.0,95,0.00,,,0.00,Wunderground v.1.13,2013-07-26 12:25:00,
2013-07-26 08:35:00,57.6,56.5,30.08,SSW,203,0.0,1.0,96,0.00,,,0.00,Wunderground v.1.13,2013-07-26 12:35:00,
2013-07-26 08:45:00,58.1,57.0,30.09,SSW,203,0.0,1.0,96,0.00,,,0.00,Wunderground v.1.13,2013-07-26 12:45:00,
2013-07-26 08:50:00,58.9,57.8,30.09,SSW,203,0.0,1.0,96,0.00,,,0.00,Wunderground v.1.13,2013-07-26 12:50:00,
2013-07-26 09:00:00,60.4,59.3,30.09,SSW,203,0.0,1.0,96,0.00,,,0.00,Wunderground v.1.13,2013-07-26 13:00:00,
2013-07-26 09:05:00,61.2,60.1,30.09,SSW,203,0.0,1.0,96,0.00,,,0.00,Wunderground v.1.13,2013-07-26 13:05:00,
2013-07-26 09:15:00,62.3,61.1,30.09,SSW,203,0.0,1.0,96,0.00,,,0.00,Wunderground v.1.13,2013-07-26 13:15:00,
2013-07-26 09:20:00,62.9,61.4,30.09,SSW,203,0.0,1.0,95,0.00,,,0.00,Wunderground v.1.13,2013-07-26 13:20:00,
2013-07-26 09:30:00,64.1,60.8,30.08,SSW,203,0.0,1.0,89,0.00,,,0.00,Wunderground v.1.13,2013-07-26 13:30:00,
2013-07-26 09:40:00,65.7,61.7,30.08,SSW,203,0.0,1.0,87,0.00,,,0.00,Wunderground v.1.13,2013-07-26 13:40:00,
2013-07-26 09:50:00,67.2,61.5,30.08,South,172,0.0,1.0,82,0.00,,,0.00,Wunderground v.1.13,2013-07-26 13:50:00,
2013-07-26 09:55:00,66.8,61.1,30.08,SSE,168,1.0,2.0,82,0.00,,,0.00,Wunderground v.1.13,2013-07-26 13:55:00,
2013-07-26 10:05:00,66.9,61.6,30.09,South,169,0.0,3.0,83,0.00,,,0.00,Wunderground v.1.13,2013-07-26 14:05:00,
2013-07-26 10:15:00,67.8,62.1,30.08,SSE,153,1.0,3.0,82,0.00,,,0.00,Wunderground v.1.13,2013-07-26 14:15:00,
2013-07-26 10:20:00,68.7,63.0,30.08,SSE,149,0.0,3.0,82,0.00,,,0.00,Wunderground v.1.13,2013-07-26 14:20:00,
2013-07-26 10:25:00,68.8,62.4,30.08,SSE,164,0.0,3.0,80,0.00,,,0.00,Wunderground v.1.13,2013-07-26 14:25:00,
2013-07-26 10:30:00,69.5,62.7,30.08,SSE,163,0.0,3.0,79,0.00,,,0.00,Wunderground v.1.13,2013-07-26 14:30:00,
2013-07-26 10:40:00,70.6,63.8,30.08,SSE,168,0.0,3.0,79,0.00,,,0.00,Wunderground v.1.13,2013-07-26 14:40:00,
2013-07-26 10:45:00,71.5,64.3,30.08,South,184,0.0,3.0,78,0.00,,,0.00,Wunderground v.1.13,2013-07-26 14:45:00,
2013-07-26 10:55:00,72.2,64.6,30.08,SE,146,1.0,3.0,77,0.00,,,0.00,Wunderground v.1.13,2013-07-26 14:55:00,
2013-07-26 11:00:00,72.8,64.4,30.08,South,182,1.0,3.0,75,0.00,,,0.00,Wunderground v.1.13,2013-07-26 15:00:00,
2013-07-26 11:05:00,72.8,63.6,30.07,SSE,151,1.0,1.0,73,0.00,,,0.00,Wunderground v.1.13,2013-07-26 15:05:00,
2013-07-26 11:15:00,73.5,63.9,30.08,SSE,150,1.0,4.0,72,0.00,,,0.00,Wunderground v.1.13,2013-07-26 15:15:00,
2013-07-26 11:20:00,74.1,63.3,30.07,WSW,244,1.0,4.0,69,0.00,,,0.00,Wunderground v.1.13,2013-07-26 15:20:00,
2013-07-26 11:30:00,75.0,62.4,30.07,NE,52,1.0,4.0,65,0.00,,,0.00,Wunderground v.1.13,2013-07-26 15:30:00,
2013-07-26 11:40:00,75.4,60.5,30.07,ESE,123,1.0,4.0,60,0.00,,,0.00,Wunderground v.1.13,2013-07-26 15:40:00,
2013-07-26 11:45:00,75.4,61.5,30.07,South,176,1.0,4.0,62,0.00,,,0.00,Wunderground v.1.13,2013-07-26 15:45:00,
2013-07-26 11:50:00,74.8,60.9,30.07,South,178,1.0,1.0,62,0.00,,,0.00,Wunderground v.1.13,2013-07-26 15:50:00,
2013-07-26 12:00:00,74.7,59.9,30.07,SE,144,1.0,4.0,60,0.00,,,0.00,Wunderground v.1.13,2013-07-26 16:00:00,
2013-07-26 12:05:00,75.0,60.2,30.07,West,272,1.0,3.0,60,0.00,,,0.00,Wunderground v.1.13,2013-07-26 16:05:00,
2013-07-26 12:15:00,75.0,60.6,30.07,SE,127,1.0,3.0,61,0.00,,,0.00,Wunderground v.1.13,2013-07-26 16:15:00,
2013-07-26 12:20:00,75.1,61.6,30.07,SSE,152,1.0,1.0,63,0.00,,,0.00,Wunderground v.1.13,2013-07-26 16:20:00,
2013-07-26 12:30:00,76.1,59.3,30.07,NNW,346,1.0,3.0,56,0.00,,,0.00,Wunderground v.1.13,2013-07-26 16:30:00,
2013-07-26 12:40:00,76.4,61.5,30.06,SE,141,1.0,1.0,60,0.00,,,0.00,Wunderground v.1.13,2013-07-26 16:40:00,
2013-07-26 12:45:00,76.5,60.6,30.06,ENE,78,2.0,2.0,58,0.00,,,0.00,Wunderground v.1.13,2013-07-26 16:45:00,
2013-07-26 12:55:00,77.3,61.9,30.06,ESE,123,1.0,3.0,59,0.00,,,0.00,Wunderground v.1.13,2013-07-26 16:55:00,
2013-07-26 13:05:00,76.6,60.7,30.06,SE,143,1.0,1.0,58,0.00,,,0.00,Wunderground v.1.13,2013-07-26 17:05:00,
2013-07-26 13:15:00,76.4,61.5,30.06,SSE,166,1.0,5.0,60,0.00,,,0.00,Wunderground v.1.13,2013-07-26 17:15:00,
2013-07-26 13:25:00,76.3,60.4,30.06,SE,144,1.0,5.0,58,0.00,,,0.00,Wunderground v.1.13,2013-07-26 17:25:00,
2013-07-26 13:35:00,76.7,62.7,30.05,SSE,159,2.0,2.0,62,0.00,,,0.00,Wunderground v.1.13,2013-07-26 17:35:00,
2013-07-26 13:45:00,76.6,59.7,30.05,WSW,237,1.0,1.0,56,0.00,,,0.00,Wunderground v.1.13,2013-07-26 17:45:00,
2013-07-26 13:50:00,77.1,60.2,30.05,SSE,163,1.0,5.0,56,0.00,,,0.00,Wunderground v.1.13,2013-07-26 17:50:00,
2013-07-26 14:00:00,77.8,62.8,30.04,ESE,111,1.0,5.0,60,0.00,,,0.00,Wunderground v.1.13,2013-07-26 18:00:00,
2013-07-26 14:05:00,77.7,61.3,30.04,NNE,30,1.0,1.0,57,0.00,,,0.00,Wunderground v.1.13,2013-07-26 18:05:00,
2013-07-26 14:15:00,77.7,62.7,30.04,SE,145,1.0,5.0,60,0.00,,,0.00,Wunderground v.1.13,2013-07-26 18:15:00,
2013-07-26 14:25:00,78.2,62.2,30.04,ESE,112,1.0,5.0,58,0.00,,,0.00,Wunderground v.1.13,2013-07-26 18:25:00,
2013-07-26 14:35:00,78.7,65.0,30.04,SSE,156,1.0,5.0,63,0.00,,,0.00,Wunderground v.1.13,2013-07-26 18:35:00,
2013-07-26 14:40:00,79.0,62.5,30.04,SSE,164,1.0,5.0,57,0.00,,,0.00,Wunderground v.1.13,2013-07-26 18:40:00,
2013-07-26 14:45:00,79.1,62.1,30.03,South,175,1.0,1.0,56,0.00,,,0.00,Wunderground v.1.13,2013-07-26 18:45:00,
2013-07-26 14:55:00,78.0,60.0,30.03,SW,223,3.0,3.0,54,0.00,,,0.00,Wunderground v.1.13,2013-07-26 18:55:00,
2013-07-26 15:06:00,78.7,59.6,30.02,West,260,2.0,7.0,52,0.00,,,0.00,Wunderground v.1.13,2013-07-26 19:06:00,
2013-07-26 15:15:00,79.5,61.4,30.02,SSW,206,2.0,2.0,54,0.00,,,0.00,Wunderground v.1.13,2013-07-26 19:15:00,
2013-07-26 15:25:00,79.4,60.8,30.02,WNW,288,2.0,2.0,53,0.00,,,0.00,Wunderground v.1.13,2013-07-26 19:25:00,
2013-07-26 15:30:00,79.1,62.1,30.02,SSW,192,2.0,2.0,56,0.00,,,0.00,Wunderground v.1.13,2013-07-26 19:30:00,
2013-07-26 15:40:00,79.6,62.0,30.02,SSE,148,1.0,1.0,55,0.00,,,0.00,Wunderground v.1.13,2013-07-26 19:40:00,
2013-07-26 15:45:00,79.8,62.2,30.01,WNW,303,2.0,2.0,55,0.00,,,0.00,Wunderground v.1.13,2013-07-26 19:45:00,
2013-07-26 15:50:00,79.8,61.7,30.01,SE,143,2.0,7.0,54,0.00,,,0.00,Wunderground v.1.13,2013-07-26 19:50:00,
2013-07-26 16:00:00,79.7,62.1,30.01,SSW,208,1.0,7.0,55,0.00,,,0.00,Wunderground v.1.13,2013-07-26 20:00:00,
2013-07-26 16:05:00,80.1,62.5,30.01,SSW,196,1.0,3.0,55,0.00,,,0.00,Wunderground v.1.13,2013-07-26 20:05:00,
2013-07-26 16:15:00,81.1,62.9,30.00,NNE,24,1.0,3.0,54,0.00,,,0.00,Wunderground v.1.13,2013-07-26 20:15:00,
2013-07-26 16:25:00,81.5,61.1,30.00,SW,226,1.0,3.0,50,0.00,,,0.00,Wunderground v.1.13,2013-07-26 20:25:00,
2013-07-26 16:30:00,81.3,62.0,30.00,WSW,246,1.0,1.0,52,0.00,,,0.00,Wunderground v.1.13,2013-07-26 20:30:00,
2013-07-26 16:40:00,81.1,61.3,30.00,West,264,2.0,5.0,51,0.00,,,0.00,Wunderground v.1.13,2013-07-26 20:40:00,
2013-07-26 16:45:00,81.0,62.3,30.00,WNW,282,2.0,2.0,53,0.00,,,0.00,Wunderground v.1.13,2013-07-26 20:45:00,
2013-07-26 16:55:00,81.7,62.4,30.00,WSW,246,2.0,3.0,52,0.00,,,0.00,Wunderground v.1.13,2013-07-26 20:55:00,
2013-07-26 17:00:00,81.7,64.5,30.00,SSW,213,2.0,3.0,56,0.00,,,0.00,Wunderground v.1.13,2013-07-26 21:00:00,
2013-07-26 17:05:00,81.0,62.3,29.99,SE,142,1.0,1.0,53,0.00,,,0.00,Wunderground v.1.13,2013-07-26 21:05:00,
2013-07-26 17:15:00,81.0,62.8,29.99,NW,319,1.0,1.0,54,0.00,,,0.00,Wunderground v.1.13,2013-07-26 21:15:00,
2013-07-26 17:20:00,81.4,64.2,30.00,WNW,291,1.0,1.0,56,0.00,,,0.00,Wunderground v.1.13,2013-07-26 21:20:00,
2013-07-26 17:30:00,80.8,62.6,29.99,South,175,3.0,3.0,54,0.00,,,0.00,Wunderground v.1.13,2013-07-26 21:30:00,
2013-07-26 17:40:00,80.8,62.6,29.99,SW,219,1.0,5.0,54,0.00,,,0.00,Wunderground v.1.13,2013-07-26 21:40:00,
2013-07-26 17:50:00,80.9,62.7,29.99,SW,220,1.0,5.0,54,0.00,,,0.00,Wunderground v.1.13,2013-07-26 21:50:00,
2013-07-26 18:00:00,81.5,63.3,29.99,WSW,257,1.0,5.0,54,0.00,,,0.00,Wunderground v.1.13,2013-07-26 22:00:00,
2013-07-26 18:05:00,81.5,63.3,29.99,West,269,1.0,2.0,54,0.00,,,0.00,Wunderground v.1.13,2013-07-26 22:05:00,
2013-07-26 18:15:00,81.2,63.0,29.98,West,268,1.0,2.0,54,0.00,,,0.00,Wunderground v.1.13,2013-07-26 22:15:00,
2013-07-26 18:25:00,81.2,63.5,29.98,West,268,1.0,1.0,55,0.00,,,0.00,Wunderground v.1.13,2013-07-26 22:25:00,
2013-07-26 18:30:00,81.6,63.3,29.98,West,269,0.0,2.0,54,0.00,,,0.00,Wunderground v.1.13,2013-07-26 22:30:00,
2013-07-26 18:35:00,82.0,64.2,29.98,West,268,1.0,2.0,55,0.00,,,0.00,Wunderground v.1.13,2013-07-26 22:35:00,
2013-07-26 18:45:00,81.9,63.6,29.98,West,268,1.0,2.0,54,0.00,,,0.00,Wunderground v.1.13,2013-07-26 22:45:00,
2013-07-26 18:55:00,80.9,63.2,29.98,NW,326,2.0,2.0,55,0.00,,,0.00,Wunderground v.1.13,2013-07-26 22:55:00,
2013-07-26 19:00:00,80.4,62.2,29.98,NW,315,2.0,2.0,54,0.00,,,0.00,Wunderground v.1.13,2013-07-26 23:00:00,
2013-07-26 19:05:00,79.8,62.7,29.98,NW,316,2.0,2.0,56,0.00,,,0.00,Wunderground v.1.13,2013-07-26 23:05:00,
2013-07-26 19:15:00,78.4,62.4,29.98,NW,316,1.0,3.0,58,0.00,,,0.00,Wunderground v.1.13,2013-07-26 23:15:00,
2013-07-26 19:25:00,76.1,62.6,29.98,NW,315,1.0,3.0,63,0.00,,,0.00,Wunderground v.1.13,2013-07-26 23:25:00,
2013-07-26 19:35:00,74.5,62.4,29.98,NW,316,1.0,3.0,66,0.00,,,0.00,Wunderground v.1.13,2013-07-26 23:35:00,
2013-07-26 19:45:00,73.7,62.9,29.98,NW,316,0.0,3.0,69,0.00,,,0.00,Wunderground v.1.13,2013-07-26 23:45:00,
2013-07-26 19:55:00,73.1,62.7,29.98,NW,315,0.0,3.0,70,0.00,,,0.00,Wunderground v.1.13,2013-07-26 23:55:00,
2013-07-26 20:06:00,72.7,63.1,29.97,NW,316,0.0,0.0,72,0.00,,,0.00,Wunderground v.1.13,2013-07-27 00:06:00,
2013-07-26 20:15:00,72.2,62.7,29.98,NW,316,0.0,0.0,72,0.00,,,0.00,Wunderground v.1.13,2013-07-27 00:15:00,
2013-07-26 20:20:00,72.0,63.3,29.98,NW,315,0.0,0.0,74,0.00,,,0.00,Wunderground v.1.13,2013-07-27 00:20:00,
2013-07-26 20:30:00,71.6,62.9,29.98,NW,316,0.0,0.0,74,0.00,,,0.00,Wunderground v.1.13,2013-07-27 00:30:00,
2013-07-26 20:40:00,70.9,61.8,29.97,NW,315,0.0,0.0,73,0.00,,,0.00,Wunderground v.1.13,2013-07-27 00:40:00,
2013-07-26 20:50:00,70.3,62.4,29.97,NW,316,0.0,0.0,76,0.00,,,0.00,Wunderground v.1.13,2013-07-27 00:50:00,
2013-07-26 21:00:00,69.7,61.8,29.98,NW,316,0.0,0.0,76,0.00,,,0.00,Wunderground v.1.13,2013-07-27 01:00:00,
2013-07-26 21:05:00,69.4,61.9,29.97,NW,315,0.0,0.0,77,0.00,,,0.00,Wunderground v.1.13,2013-07-27 01:05:00,
2013-07-26 21:15:00,69.0,61.9,29.97,NW,315,0.0,0.0,78,0.00,,,0.00,Wunderground v.1.13,2013-07-27 01:15:00,
2013-07-26 21:20:00,68.6,61.8,29.98,NW,316,0.0,0.0,79,0.00,,,0.00,Wunderground v.1.13,2013-07-27 01:20:00,
2013-07-26 21:30:00,68.0,61.2,29.98,NW,316,0.0,0.0,79,0.00,,,0.00,Wunderground v.1.13,2013-07-27 01:30:00,
2013-07-26 21:35:00,67.9,61.5,29.98,NW,315,0.0,0.0,80,0.00,,,0.00,Wunderground v.1.13,2013-07-27 01:35:00,
2013-07-26 21:45:00,67.6,61.2,29.98,NW,316,0.0,0.0,80,0.00,,,0.00,Wunderground v.1.13,2013-07-27 01:45:00,
2013-07-26 21:55:00,67.2,61.2,29.98,NW,316,0.0,0.0,81,0.00,,,0.00,Wunderground v.1.13,2013-07-27 01:55:00,
2013-07-26 22:05:00,67.0,61.0,29.99,NW,316,0.0,0.0,81,0.00,,,0.00,Wunderground v.1.13,2013-07-27 02:05:00,
2013-07-26 22:15:00,66.7,61.0,29.99,NW,316,0.0,0.0,82,0.00,,,0.00,Wunderground v.1.13,2013-07-27 02:15:00,
2013-07-26 22:20:00,66.6,60.9,29.99,NW,316,0.0,0.0,82,0.00,,,0.00,Wunderground v.1.13,2013-07-27 02:20:00,
2013-07-26 22:30:00,66.2,60.5,29.99,NW,316,0.0,0.0,82,0.00,,,0.00,Wunderground v.1.13,2013-07-27 02:30:00,
2013-07-26 22:40:00,65.9,60.6,29.99,NW,316,0.0,0.0,83,0.00,,,0.00,Wunderground v.1.13,2013-07-27 02:40:00,
2013-07-26 22:50:00,65.4,60.4,29.98,NW,315,0.0,0.0,84,0.00,,,0.00,Wunderground v.1.13,2013-07-27 02:50:00,
2013-07-26 23:00:00,65.0,60.0,29.99,NW,316,0.0,0.0,84,0.00,,,0.00,Wunderground v.1.13,2013-07-27 03:00:00,
2013-07-26 23:05:00,64.9,60.3,29.99,NW,316,0.0,0.0,85,0.00,,,0.00,Wunderground v.1.13,2013-07-27 03:05:00,
2013-07-26 23:15:00,64.6,60.0,29.99,NW,316,0.0,0.0,85,0.00,,,0.00,Wunderground v.1.13,2013-07-27 03:15:00,
2013-07-26 23:20:00,64.5,59.9,29.99,NW,316,0.0,0.0,85,0.00,,,0.00,Wunderground v.1.13,2013-07-27 03:20:00,
2013-07-26 23:30:00,64.3,60.0,29.99,NW,316,0.0,0.0,86,0.00,,,0.00,Wunderground v.1.13,2013-07-27 03:30:00,
2013-07-26 23:40:00,64.1,59.8,29.99,NW,316,0.0,0.0,86,0.00,,,0.00,Wunderground v.1.13,2013-07-27 03:40:00,
2013-07-26 23:45:00,63.9,59.6,29.98,NW,316,0.0,0.0,86,0.00,,,0.00,Wunderground v.1.13,2013-07-27 03:45:00,
2013-07-26 23:50:00,63.8,59.9,29.98,NW,315,0.0,0.0,87,0.00,,,0.00,Wunderground v.1.13,2013-07-27 03:50:00,
2013-07-26 23:55:00,63.6,59.7,29.98,NW,316,0.0,0.0,87,0.00,,,0.00,Wunderground v.1.13,2013-07-27 03:55:00,